This is the latest recevied weather packets stored in our database for station/object OM6ACB-6. If no packets are shown the sender has not sent any weather packets the latest 10 day(s).
| Time | Temp. | Humidity | Pressure | Rain* | Wind** | Luminosity | Snow |
|---|---|---|---|---|---|---|---|
| 1777548651 | 13.89° C | 26% | 1029.7 hPa | 0 mm | - | - | - |
| 1777548051 | 12.22° C | 27% | 1029.4 hPa | 0 mm | - | - | - |
| 1777547451 | 12.78° C | 26% | 1029.6 hPa | 0 mm | - | - | - |
| 1777546851 | 11.67° C | 27% | 1029.5 hPa | 0 mm | - | - | - |
| 1777546250 | 11.67° C | 27% | 1029.6 hPa | 0 mm | - | - | - |
| 1777545650 | 11.67° C | 27% | 1029.5 hPa | 0 mm | - | - | - |
| 1777545050 | 12.22° C | 26% | 1029.7 hPa | 0 mm | - | - | - |
| 1777544449 | 12.22° C | 26% | 1029.8 hPa | 0 mm | - | - | - |
| 1777543849 | 11.11° C | 27% | 1029.7 hPa | 0 mm | - | - | - |
| 1777543249 | 12.78° C | 26% | 1030 hPa | 0 mm | - | - | - |
| 1777542648 | 10.56° C | 27% | 1029.9 hPa | 0 mm | - | - | - |
| 1777542048 | 11.67° C | 27% | 1029.8 hPa | 0 mm | - | - | - |
| 1777541448 | 10.56° C | 27% | 1029.9 hPa | 0 mm | - | - | - |
| 1777540848 | 10° C | 27% | 1029.9 hPa | 0 mm | - | - | - |
| 1777540247 | 9.44° C | 28% | 1029.9 hPa | 0 mm | - | - | - |
| 1777539647 | 10° C | 28% | 1029.9 hPa | 0 mm | - | - | - |
| 1777539047 | 10° C | 28% | 1029.9 hPa | 0 mm | - | - | - |
| 1777538447 | 10° C | 28% | 1029.9 hPa | 0 mm | - | - | - |
| 1777537846 | 8.33° C | 28% | 1029.7 hPa | 0 mm | - | - | - |
| 1777537246 | 9.44° C | 28% | 1029.9 hPa | 0 mm | - | - | - |
| 1777536646 | 8.33° C | 28% | 1029.9 hPa | 0 mm | - | - | - |
| 1777536045 | 7.78° C | 29% | 1029.9 hPa | 0 mm | - | - | - |
| 1777535445 | 7.78° C | 29% | 1029.9 hPa | 0 mm | - | - | - |
| 1777534845 | 7.22° C | 29% | 1030 hPa | 0 mm | - | - | - |
| 1777534244 | 7.22° C | 29% | 1030 hPa | 0 mm | - | - | - |
* Rain latest hour (hover to see other rain measurements)
** Current wind speed in m/s (hover to see current wind gust speed)